Hebron, CT (06248)

8:38 AM EDT on July 29, 2016 (GMT -0400)
At Skinner Lane | | Change Station

Elev 640 ft 41.68 °N, 72.37 °W | Updated 22 seconds ago

Light Rain
Light Rain Mist
71.4 °F
Feels Like 71.4 °F
N
0.0
Wind Variable Wind from ESE
Gusts 0.0 mph

Today
High -- | Low -- °F
--% Chance of Precip.
Yesterday
High -- | Low -- °F
Precip. -- in
Pressure 29.86 in
Visibility 5.0 miles
Clouds Overcast 11000 ft
Dew Point 68 °F
Humidity 88%
Rainfall 0.07 in
Snow Depth Not available.
5:41 AM 8:10 PM
Waning Crescent, 22% visible
METAR KIJD 291152Z AUTO 35003KT 5SM -RA BR OVC110 23/23 A2987 RMK AO2 SLP111 P0002 60011 7//// T02330228 10250 20228 58003
Pressure 29.86 in
Visibility 5.0 miles
Clouds Overcast 11000 ft
Dew Point 68 °F
Humidity 88%
Rainfall 0.07 in
Snow Depth Not available.
5:41 AM 8:10 PM
Waning Crescent, 22% visible
METAR KIJD 291152Z AUTO 35003KT 5SM -RA BR OVC110 23/23 A2987 RMK AO2 SLP111 P0002 60011 7//// T02330228 10250 20228 58003

10-Day Weather Forecast

Almanac

Astronomy

Jul. 29, 2016 Rise Set
Actual Time
Civil Twilight
Nautical Twilight
Astronomical Twilight
Moon
Length of Visible Light
Length of Day
Tomorrow will be .
, % of the Moon is Illuminated

Today's Extremes

State Highs State Lows

Community

WunderPhotos

Upload Photos

1,928,335 photos uploaded!

WunderBlog® & News

Nearby

Air Quality

  Air Quality AQ Index Pollutant
Not available.

Snow Depth

Station Depth Elevation

Earthquake Activity

City Distance Mag. Time & Date
Minimum magnitude displayed is 2.5.

Coastal Water Temperatures

Place Temperature

Stations

Nearby Weather Stations

Station Location Temp. Windchill Dew Point Humidity Wind Precip. Elev Updated Type
                   

Watches & Warnings

There are currently no watches in effect.